sensor_id;sensor_type;location;lat;lon;timestamp;pressure;altitude;pressure_sealevel;temperature;humidity
57990;BME280;58373;51.824;5.564;2023-04-01T00:01:18;99007.47;;;8.71;100.00
57990;BME280;58373;51.824;5.564;2023-04-01T00:03:44;99006.31;;;8.66;100.00
57990;BME280;58373;51.824;5.564;2023-04-01T00:06:09;99010.84;;;8.64;100.00
57990;BME280;58373;51.824;5.564;2023-04-01T00:08:36;99015.72;;;8.67;100.00
57990;BME280;58373;51.824;5.564;2023-04-01T00:11:02;99010.56;;;8.67;100.00
57990;BME280;58373;51.824;5.564;2023-04-01T00:13:27;99013.47;;;8.72;100.00
57990;BME280;58373;51.824;5.564;2023-04-01T00:15:53;99020.88;;;8.67;100.00
57990;BME280;58373;51.824;5.564;2023-04-01T00:18:18;99013.13;;;8.67;100.00
57990;BME280;58373;51.824;5.564;2023-04-01T00:20:45;99014.41;;;8.63;100.00
57990;BME280;58373;51.824;5.564;2023-04-01T00:23:10;99017.97;;;8.62;100.00
57990;BME280;58373;51.824;5.564;2023-04-01T00:25:35;99021.19;;;8.64;100.00
57990;BME280;58373;51.824;5.564;2023-04-01T00:28:00;99023.47;;;8.75;100.00
57990;BME280;58373;51.824;5.564;2023-04-01T00:30:26;99024.41;;;8.66;100.00
57990;BME280;58373;51.824;5.564;2023-04-01T00:32:52;99023.81;;;8.72;100.00
57990;BME280;58373;51.824;5.564;2023-04-01T00:35:17;99022.81;;;8.65;100.00
57990;BME280;58373;51.824;5.564;2023-04-01T00:37:43;99024.75;;;8.71;100.00
57990;BME280;58373;51.824;5.564;2023-04-01T00:40:08;99027.34;;;8.71;100.00
57990;BME280;58373;51.824;5.564;2023-04-01T00:42:45;99028.97;;;8.72;100.00
57990;BME280;58373;51.824;5.564;2023-04-01T00:48:10;99036.06;;;8.70;100.00
57990;BME280;58373;51.824;5.564;2023-04-01T00:50:35;99039.63;;;8.69;100.00
57990;BME280;58373;51.824;5.564;2023-04-01T00:53:01;99036.06;;;8.70;100.00
57990;BME280;58373;51.824;5.564;2023-04-01T00:55:28;99043.81;;;8.70;100.00
57990;BME280;58373;51.824;5.564;2023-04-01T00:57:55;99037.19;;;8.67;100.00
57990;BME280;58373;51.824;5.564;2023-04-01T01:00:22;99039.44;;;8.70;100.00
57990;BME280;58373;51.824;5.564;2023-04-01T01:02:47;99038.00;;;8.68;100.00
57990;BME280;58373;51.824;5.564;2023-04-01T01:05:14;99040.59;;;8.68;100.00
57990;BME280;58373;51.824;5.564;2023-04-01T01:07:44;99049.34;;;8.75;100.00
57990;BME280;58373;51.824;5.564;2023-04-01T01:10:16;99045.94;;;8.83;100.00
57990;BME280;58373;51.824;5.564;2023-04-01T01:15:29;99046.09;;;8.73;100.00
57990;BME280;58373;51.824;5.564;2023-04-01T01:25:47;99056.25;;;8.66;100.00
57990;BME280;58373;51.824;5.564;2023-04-01T01:31:03;99058.34;;;8.71;100.00
57990;BME280;58373;51.824;5.564;2023-04-01T01:33:42;99055.47;;;8.74;100.00
57990;BME280;58373;51.824;5.564;2023-04-01T01:36:10;99063.53;;;8.71;100.00
57990;BME280;58373;51.824;5.564;2023-04-01T01:38:37;99063.84;;;8.68;100.00
57990;BME280;58373;51.824;5.564;2023-04-01T01:41:04;99060.75;;;8.64;100.00
57990;BME280;58373;51.824;5.564;2023-04-01T01:43:30;99060.59;;;8.66;100.00
57990;BME280;58373;51.824;5.564;2023-04-01T01:45:57;99062.53;;;8.64;100.00
57990;BME280;58373;51.824;5.564;2023-04-01T01:48:24;99072.56;;;8.67;100.00
57990;BME280;58373;51.824;5.564;2023-04-01T01:50:51;99078.38;;;8.61;100.00
57990;BME280;58373;51.824;5.564;2023-04-01T01:53:17;99078.38;;;8.61;100.00
57990;BME280;58373;51.824;5.564;2023-04-01T01:55:45;99073.19;;;8.61;100.00
57990;BME280;58373;51.824;5.564;2023-04-01T02:00:36;99080.28;;;8.59;100.00
57990;BME280;58373;51.824;5.564;2023-04-01T02:03:02;99074.19;;;8.68;100.00
57990;BME280;58373;51.824;5.564;2023-04-01T02:05:29;99079.31;;;8.60;100.00
57990;BME280;58373;51.824;5.564;2023-04-01T02:07:58;99078.66;;;8.58;100.00
57990;BME280;58373;51.824;5.564;2023-04-01T02:10:26;99073.81;;;8.55;100.00
57990;BME280;58373;51.824;5.564;2023-04-01T02:12:52;99081.41;;;8.56;100.00
57990;BME280;58373;51.824;5.564;2023-04-01T02:15:18;99088.00;;;8.50;100.00
57990;BME280;58373;51.824;5.564;2023-04-01T02:17:45;99089.63;;;8.51;100.00
57990;BME280;58373;51.824;5.564;2023-04-01T02:20:15;99089.91;;;8.48;100.00
57990;BME280;58373;51.824;5.564;2023-04-01T02:22:43;99091.56;;;8.49;100.00
57990;BME280;58373;51.824;5.564;2023-04-01T02:25:11;99098.63;;;8.47;100.00
57990;BME280;58373;51.824;5.564;2023-04-01T02:27:38;99097.66;;;8.48;100.00
57990;BME280;58373;51.824;5.564;2023-04-01T02:30:03;99102.50;;;8.43;100.00
57990;BME280;58373;51.824;5.564;2023-04-01T02:32:29;99099.09;;;8.43;100.00
57990;BME280;58373;51.824;5.564;2023-04-01T02:34:56;99101.19;;;8.39;100.00
57990;BME280;58373;51.824;5.564;2023-04-01T02:37:21;99100.38;;;8.39;100.00
57990;BME280;58373;51.824;5.564;2023-04-01T02:39:46;99106.03;;;8.42;100.00
57990;BME280;58373;51.824;5.564;2023-04-01T02:42:13;99101.47;;;8.36;100.00
57990;BME280;58373;51.824;5.564;2023-04-01T02:44:38;99098.22;;;8.34;100.00
57990;BME280;58373;51.824;5.564;2023-04-01T02:47:03;99097.63;;;8.40;100.00
57990;BME280;58373;51.824;5.564;2023-04-01T02:49:29;99104.13;;;8.44;100.00
57990;BME280;58373;51.824;5.564;2023-04-01T02:51:54;99091.44;;;8.33;100.00
57990;BME280;58373;51.824;5.564;2023-04-01T02:54:19;99099.63;;;8.29;100.00
57990;BME280;58373;51.824;5.564;2023-04-01T02:56:45;99104.75;;;8.38;100.00
57990;BME280;58373;51.824;5.564;2023-04-01T02:59:10;99102.50;;;8.25;100.00
57990;BME280;58373;51.824;5.564;2023-04-01T03:01:35;99102.38;;;8.27;100.00
57990;BME280;58373;51.824;5.564;2023-04-01T03:04:01;99113.72;;;8.34;100.00
57990;BME280;58373;51.824;5.564;2023-04-01T03:06:26;99104.28;;;8.25;100.00
57990;BME280;58373;51.824;5.564;2023-04-01T03:08:51;99112.97;;;8.42;100.00
57990;BME280;58373;51.824;5.564;2023-04-01T03:11:16;99114.13;;;8.21;100.00
57990;BME280;58373;51.824;5.564;2023-04-01T03:13:41;99112.66;;;8.19;100.00
57990;BME280;58373;51.824;5.564;2023-04-01T03:16:07;99111.03;;;8.18;100.00
57990;BME280;58373;51.824;5.564;2023-04-01T03:18:32;99117.38;;;8.23;100.00
57990;BME280;58373;51.824;5.564;2023-04-01T03:20:57;99107.69;;;8.25;100.00
57990;BME280;58373;51.824;5.564;2023-04-01T03:23:22;99116.56;;;8.23;100.00
57990;BME280;58373;51.824;5.564;2023-04-01T03:25:49;99119.44;;;8.20;100.00
57990;BME280;58373;51.824;5.564;2023-04-01T03:28:15;99118.78;;;8.18;100.00
57990;BME280;58373;51.824;5.564;2023-04-01T03:30:40;99123.13;;;8.17;100.00
57990;BME280;58373;51.824;5.564;2023-04-01T03:33:05;99120.72;;;8.16;100.00
57990;BME280;58373;51.824;5.564;2023-04-01T03:35:31;99122.31;;;8.17;100.00
57990;BME280;58373;51.824;5.564;2023-04-01T03:37:56;99127.50;;;8.17;100.00
57990;BME280;58373;51.824;5.564;2023-04-01T03:40:21;99129.44;;;8.15;100.00
57990;BME280;58373;51.824;5.564;2023-04-01T03:42:46;99119.38;;;8.12;100.00
57990;BME280;58373;51.824;5.564;2023-04-01T03:45:11;99112.44;;;8.12;100.00
57990;BME280;58373;51.824;5.564;2023-04-01T03:47:37;99125.19;;;8.14;100.00
57990;BME280;58373;51.824;5.564;2023-04-01T03:50:03;99125.88;;;8.16;100.00
57990;BME280;58373;51.824;5.564;2023-04-01T03:52:28;99132.94;;;8.14;100.00
57990;BME280;58373;51.824;5.564;2023-04-01T03:54:54;99126.97;;;8.13;100.00
57990;BME280;58373;51.824;5.564;2023-04-01T03:57:19;99136.22;;;8.16;100.00
57990;BME280;58373;51.824;5.564;2023-04-01T03:59:45;99136.84;;;8.18;100.00
57990;BME280;58373;51.824;5.564;2023-04-01T04:02:10;99127.78;;;8.14;100.00
57990;BME280;58373;51.824;5.564;2023-04-01T04:04:35;99131.31;;;8.13;100.00
57990;BME280;58373;51.824;5.564;2023-04-01T04:07:00;99145.53;;;8.09;100.00
57990;BME280;58373;51.824;5.564;2023-04-01T04:09:26;99141.53;;;8.14;100.00
57990;BME280;58373;51.824;5.564;2023-04-01T04:11:51;99140.03;;;8.12;100.00
57990;BME280;58373;51.824;5.564;2023-04-01T04:14:16;99148.22;;;8.07;100.00
57990;BME280;58373;51.824;5.564;2023-04-01T04:16:42;99148.09;;;8.09;100.00
57990;BME280;58373;51.824;5.564;2023-04-01T04:19:07;99149.34;;;8.05;100.00
57990;BME280;58373;51.824;5.564;2023-04-01T04:21:32;99148.75;;;8.11;100.00
57990;BME280;58373;51.824;5.564;2023-04-01T04:24:01;99153.91;;;8.11;100.00
57990;BME280;58373;51.824;5.564;2023-04-01T04:26:26;99155.25;;;8.15;100.00
57990;BME280;58373;51.824;5.564;2023-04-01T04:28:52;99156.41;;;8.03;100.00
57990;BME280;58373;51.824;5.564;2023-04-01T04:31:18;99163.53;;;8.01;100.00
57990;BME280;58373;51.824;5.564;2023-04-01T04:33:44;99167.06;;;7.99;100.00
57990;BME280;58373;51.824;5.564;2023-04-01T04:36:09;99172.06;;;8.01;100.00
57990;BME280;58373;51.824;5.564;2023-04-01T04:38:34;99166.75;;;8.03;100.00
57990;BME280;58373;51.824;5.564;2023-04-01T04:40:59;99170.66;;;8.07;100.00
57990;BME280;58373;51.824;5.564;2023-04-01T04:43:25;99170.63;;;7.98;100.00
57990;BME280;58373;51.824;5.564;2023-04-01T04:45:50;99170.63;;;7.98;100.00
57990;BME280;58373;51.824;5.564;2023-04-01T04:48:16;99179.81;;;8.01;100.00
57990;BME280;58373;51.824;5.564;2023-04-01T04:50:44;99174.16;;;7.97;100.00
57990;BME280;58373;51.824;5.564;2023-04-01T04:53:10;99186.09;;;7.98;100.00
57990;BME280;58373;51.824;5.564;2023-04-01T04:55:35;99186.22;;;7.97;100.00
57990;BME280;58373;51.824;5.564;2023-04-01T04:58:00;99180.63;;;8.02;100.00
57990;BME280;58373;51.824;5.564;2023-04-01T05:00:26;99183.53;;;7.98;100.00
57990;BME280;58373;51.824;5.564;2023-04-01T05:02:51;99187.72;;;7.99;100.00
57990;BME280;58373;51.824;5.564;2023-04-01T05:05:16;99191.16;;;8.08;100.00
57990;BME280;58373;51.824;5.564;2023-04-01T05:07:41;99193.91;;;8.07;100.00
57990;BME280;58373;51.824;5.564;2023-04-01T05:10:07;99207.25;;;8.02;100.00
57990;BME280;58373;51.824;5.564;2023-04-01T05:12:32;99209.41;;;8.07;100.00
57990;BME280;58373;51.824;5.564;2023-04-01T05:15:02;99214.56;;;8.07;100.00
57990;BME280;58373;51.824;5.564;2023-04-01T05:17:27;99222.31;;;8.07;100.00
57990;BME280;58373;51.824;5.564;2023-04-01T05:19:53;99228.16;;;8.09;100.00
57990;BME280;58373;51.824;5.564;2023-04-01T05:22:18;99216.84;;;8.10;100.00
57990;BME280;58373;51.824;5.564;2023-04-01T05:24:43;99225.91;;;8.14;100.00
57990;BME280;58373;51.824;5.564;2023-04-01T05:27:08;99225.31;;;8.20;100.00
57990;BME280;58373;51.824;5.564;2023-04-01T05:29:34;99232.94;;;8.21;100.00
57990;BME280;58373;51.824;5.564;2023-04-01T05:31:59;99239.41;;;8.25;100.00
57990;BME280;58373;51.824;5.564;2023-04-01T05:34:25;99244.44;;;8.27;100.00
57990;BME280;58373;51.824;5.564;2023-04-01T05:36:50;99240.09;;;8.28;100.00
57990;BME280;58373;51.824;5.564;2023-04-01T05:39:17;99249.97;;;8.32;100.00
57990;BME280;58373;51.824;5.564;2023-04-01T05:41:42;99246.72;;;8.30;100.00
57990;BME280;58373;51.824;5.564;2023-04-01T05:44:07;99260.00;;;8.35;100.00
57990;BME280;58373;51.824;5.564;2023-04-01T05:46:36;99260.00;;;8.35;100.00
57990;BME280;58373;51.824;5.564;2023-04-01T05:49:01;99266.13;;;8.34;100.00
57990;BME280;58373;51.824;5.564;2023-04-01T05:51:26;99269.25;;;8.38;100.00
57990;BME280;58373;51.824;5.564;2023-04-01T05:53:52;99278.19;;;8.43;100.00
57990;BME280;58373;51.824;5.564;2023-04-01T05:56:17;99274.28;;;8.39;100.00
57990;BME280;58373;51.824;5.564;2023-04-01T05:58:42;99273.63;;;8.37;100.00
57990;BME280;58373;51.824;5.564;2023-04-01T06:01:09;99282.69;;;8.41;100.00
57990;BME280;58373;51.824;5.564;2023-04-01T06:03:34;99288.00;;;8.40;100.00
57990;BME280;58373;51.824;5.564;2023-04-01T06:06:00;99292.84;;;8.43;100.00
57990;BME280;58373;51.824;5.564;2023-04-01T06:08:26;99296.28;;;8.43;100.00
57990;BME280;58373;51.824;5.564;2023-04-01T06:26:24;99323.13;;;8.50;100.00
57990;BME280;58373;51.824;5.564;2023-04-01T06:36:50;99337.38;;;8.55;100.00
57990;BME280;58373;51.824;5.564;2023-04-01T06:44:33;99351.25;;;8.54;100.00
57990;BME280;58373;51.824;5.564;2023-04-01T06:47:09;99354.19;;;8.59;100.00
57990;BME280;58373;51.824;5.564;2023-04-01T06:54:48;99356.78;;;8.59;100.00
57990;BME280;58373;51.824;5.564;2023-04-01T06:57:26;99357.00;;;8.65;100.00
57990;BME280;58373;51.824;5.564;2023-04-01T06:59:55;99367.50;;;8.64;100.00
57990;BME280;58373;51.824;5.564;2023-04-01T07:04:51;99372.97;;;8.61;100.00
57990;BME280;58373;51.824;5.564;2023-04-01T07:07:28;99372.16;;;8.60;100.00
57990;BME280;58373;51.824;5.564;2023-04-01T07:09:55;99375.03;;;8.75;100.00
57990;BME280;58373;51.824;5.564;2023-04-01T07:14:56;99383.00;;;8.64;100.00
57990;BME280;58373;51.824;5.564;2023-04-01T07:17:25;99387.66;;;8.60;100.00
57990;BME280;58373;51.824;5.564;2023-04-01T07:22:55;99398.81;;;8.61;100.00
57990;BME280;58373;51.824;5.564;2023-04-01T07:25:22;99408.47;;;8.59;100.00
57990;BME280;58373;51.824;5.564;2023-04-01T07:27:50;99409.00;;;8.62;100.00
57990;BME280;58373;51.824;5.564;2023-04-01T07:30:21;99408.84;;;8.64;100.00
57990;BME280;58373;51.824;5.564;2023-04-01T07:32:58;99423.38;;;8.65;100.00
57990;BME280;58373;51.824;5.564;2023-04-01T07:53:11;99447.81;;;8.52;100.00
57990;BME280;58373;51.824;5.564;2023-04-01T07:55:50;99448.13;;;8.49;100.00
57990;BME280;58373;51.824;5.564;2023-04-01T08:03:40;99464.13;;;8.53;100.00
57990;BME280;58373;51.824;5.564;2023-04-01T08:06:18;99463.03;;;8.56;100.00
57990;BME280;58373;51.824;5.564;2023-04-01T08:08:48;99473.38;;;8.56;100.00
57990;BME280;58373;51.824;5.564;2023-04-01T08:21:32;99481.75;;;8.67;100.00
57990;BME280;58373;51.824;5.564;2023-04-01T08:24:10;99495.75;;;8.65;100.00
57990;BME280;58373;51.824;5.564;2023-04-01T08:26:37;99501.47;;;8.86;100.00
57990;BME280;58373;51.824;5.564;2023-04-01T08:34:11;99514.63;;;8.75;100.00
57990;BME280;58373;51.824;5.564;2023-04-01T08:36:41;99517.50;;;8.72;100.00
57990;BME280;58373;51.824;5.564;2023-04-01T08:39:23;99511.38;;;8.73;100.00
57990;BME280;58373;51.824;5.564;2023-04-01T08:44:58;99521.13;;;8.79;100.00
57990;BME280;58373;51.824;5.564;2023-04-01T08:47:36;99525.47;;;8.78;100.00
57990;BME280;58373;51.824;5.564;2023-04-01T08:50:25;99523.72;;;8.79;100.00
57990;BME280;58373;51.824;5.564;2023-04-01T08:52:58;99536.06;;;8.85;100.00
57990;BME280;58373;51.824;5.564;2023-04-01T09:00:50;99541.97;;;8.95;100.00
57990;BME280;58373;51.824;5.564;2023-04-01T09:03:37;99549.53;;;9.07;100.00
57990;BME280;58373;51.824;5.564;2023-04-01T09:06:11;99552.72;;;9.00;100.00
57990;BME280;58373;51.824;5.564;2023-04-01T09:11:16;99556.59;;;9.04;100.00
57990;BME280;58373;51.824;5.564;2023-04-01T09:21:58;99567.44;;;9.18;100.00
57990;BME280;58373;51.824;5.564;2023-04-01T09:27:19;99588.69;;;9.12;100.00
57990;BME280;58373;51.824;5.564;2023-04-01T09:42:43;99611.03;;;9.13;100.00
57990;BME280;58373;51.824;5.564;2023-04-01T09:45:31;99615.50;;;9.11;100.00
57990;BME280;58373;51.824;5.564;2023-04-01T09:58:31;99624.16;;;9.01;100.00
57990;BME280;58373;51.824;5.564;2023-04-01T10:01:19;99626.44;;;9.04;100.00
57990;BME280;58373;51.824;5.564;2023-04-01T10:15:10;99647.81;;;9.07;100.00
57990;BME280;58373;51.824;5.564;2023-04-01T10:22:46;99645.88;;;9.09;100.00
57990;BME280;58373;51.824;5.564;2023-04-01T10:33:32;99656.69;;;9.22;100.00
57990;BME280;58373;51.824;5.564;2023-04-01T10:41:21;99656.13;;;9.28;100.00
57990;BME280;58373;51.824;5.564;2023-04-01T10:51:38;99666.94;;;9.41;100.00
57990;BME280;58373;51.824;5.564;2023-04-01T10:56:59;99664.63;;;9.38;100.00
57990;BME280;58373;51.824;5.564;2023-04-01T11:07:36;99677.56;;;9.38;100.00
57990;BME280;58373;51.824;5.564;2023-04-01T11:41:10;99716.81;;;9.79;100.00
57990;BME280;58373;51.824;5.564;2023-04-01T11:46:15;99725.69;;;9.58;100.00
57990;BME280;58373;51.824;5.564;2023-04-01T11:54:03;99736.22;;;9.75;100.00
57990;BME280;58373;51.824;5.564;2023-04-01T12:02:16;99738.13;;;9.73;100.00
57990;BME280;58373;51.824;5.564;2023-04-01T12:07:10;99747.47;;;9.83;100.00
57990;BME280;58373;51.824;5.564;2023-04-01T12:10:42;99753.03;;;9.89;100.00
57990;BME280;58373;51.824;5.564;2023-04-01T12:15:22;99763.59;;;9.95;100.00
57990;BME280;58373;51.824;5.564;2023-04-01T12:17:50;99752.81;;;10.00;100.00
57990;BME280;58373;51.824;5.564;2023-04-01T12:25:25;99770.56;;;10.13;100.00
57990;BME280;58373;51.824;5.564;2023-04-01T12:33:00;99784.19;;;10.15;100.00
57990;BME280;58373;51.824;5.564;2023-04-01T12:35:49;99784.50;;;10.11;100.00
57990;BME280;58373;51.824;5.564;2023-04-01T12:38:34;99787.13;;;10.20;100.00
57990;BME280;58373;51.824;5.564;2023-04-01T12:46:19;99793.50;;;10.07;100.00
57990;BME280;58373;51.824;5.564;2023-04-01T12:51:50;99808.97;;;9.99;100.00
57990;BME280;58373;51.824;5.564;2023-04-01T13:15:00;99831.41;;;10.08;100.00
57990;BME280;58373;51.824;5.564;2023-04-01T13:17:35;99836.59;;;10.08;100.00
57990;BME280;58373;51.824;5.564;2023-04-01T13:22:45;99840.91;;;10.18;100.00
57990;BME280;58373;51.824;5.564;2023-04-01T13:27:44;99837.75;;;9.96;100.00
57990;BME280;58373;51.824;5.564;2023-04-01T13:30:17;99852.22;;;9.99;100.00
57990;BME280;58373;51.824;5.564;2023-04-01T13:56:07;99875.94;;;9.94;100.00
57990;BME280;58373;51.824;5.564;2023-04-01T14:01:22;99871.22;;;10.07;100.00
57990;BME280;58373;51.824;5.564;2023-04-01T14:11:33;99882.78;;;10.41;100.00
57990;BME280;58373;51.824;5.564;2023-04-01T14:16:50;99884.41;;;10.42;100.00
57990;BME280;58373;51.824;5.564;2023-04-01T14:32:10;99910.13;;;10.35;100.00
57990;BME280;58373;51.824;5.564;2023-04-01T14:34:51;99908.63;;;10.32;100.00
57990;BME280;58373;51.824;5.564;2023-04-01T14:42:41;99914.53;;;10.25;100.00
57990;BME280;58373;51.824;5.564;2023-04-01T14:50:41;99927.97;;;10.10;100.00
57990;BME280;58373;51.824;5.564;2023-04-01T14:55:52;99933.25;;;10.09;100.00
57990;BME280;58373;51.824;5.564;2023-04-01T14:58:18;99936.97;;;10.06;100.00
57990;BME280;58373;51.824;5.564;2023-04-01T15:00:48;99934.94;;;10.00;100.00
57990;BME280;58373;51.824;5.564;2023-04-01T15:03:26;99949.94;;;9.97;100.00
57990;BME280;58373;51.824;5.564;2023-04-01T15:05:56;99946.84;;;9.93;100.00
57990;BME280;58373;51.824;5.564;2023-04-01T15:08:31;99938.66;;;9.98;100.00
57990;BME280;58373;51.824;5.564;2023-04-01T15:11:00;99947.81;;;9.92;100.00
57990;BME280;58373;51.824;5.564;2023-04-01T15:29:38;99975.50;;;9.82;100.00
57990;BME280;58373;51.824;5.564;2023-04-01T15:37:26;99970.84;;;9.85;100.00
57990;BME280;58373;51.824;5.564;2023-04-01T15:53:26;100003.06;;;9.73;100.00
57990;BME280;58373;51.824;5.564;2023-04-01T15:58:03;100023.81;;;9.64;100.00
57990;BME280;58373;51.824;5.564;2023-04-01T16:06:08;100034.69;;;9.57;100.00
57990;BME280;58373;51.824;5.564;2023-04-01T16:11:10;100034.41;;;9.61;100.00
57990;BME280;58373;51.824;5.564;2023-04-01T16:16:09;100055.41;;;9.57;100.00
57990;BME280;58373;51.824;5.564;2023-04-01T16:18:52;100057.06;;;9.58;100.00
57990;BME280;58373;51.824;5.564;2023-04-01T16:21:24;100061.69;;;9.55;100.00
57990;BME280;58373;51.824;5.564;2023-04-01T16:23:56;100064.66;;;9.50;100.00
57990;BME280;58373;51.824;5.564;2023-04-01T16:26:24;100075.31;;;9.47;100.00
57990;BME280;58373;51.824;5.564;2023-04-01T16:31:37;100081.72;;;9.43;100.00
57990;BME280;58373;51.824;5.564;2023-04-01T16:34:25;100093.03;;;9.42;100.00
57990;BME280;58373;51.824;5.564;2023-04-01T16:37:14;100094.22;;;9.38;100.00
57990;BME280;58373;51.824;5.564;2023-04-01T16:47:14;100111.69;;;9.36;100.00
57990;BME280;58373;51.824;5.564;2023-04-01T16:49:44;100121.06;;;9.37;100.00
57990;BME280;58373;51.824;5.564;2023-04-01T17:02:17;100147.50;;;9.31;100.00
57990;BME280;58373;51.824;5.564;2023-04-01T17:04:44;100160.81;;;9.26;100.00
57990;BME280;58373;51.824;5.564;2023-04-01T17:15:16;100178.66;;;9.20;100.00
57990;BME280;58373;51.824;5.564;2023-04-01T17:22:55;100198.91;;;9.15;100.00
57990;BME280;58373;51.824;5.564;2023-04-01T17:32:48;100218.75;;;9.04;100.00
57990;BME280;58373;51.824;5.564;2023-04-01T17:35:22;100220.66;;;9.02;100.00
57990;BME280;58373;51.824;5.564;2023-04-01T17:45:57;100259.53;;;8.91;100.00
57990;BME280;58373;51.824;5.564;2023-04-01T17:48:37;100257.91;;;8.90;100.00
57990;BME280;58373;51.824;5.564;2023-04-01T17:51:12;100268.50;;;8.87;100.00
57990;BME280;58373;51.824;5.564;2023-04-01T17:58:55;100293.22;;;8.80;100.00
57990;BME280;58373;51.824;5.564;2023-04-01T18:09:20;100308.03;;;8.57;100.00
57990;BME280;58373;51.824;5.564;2023-04-01T18:22:15;100347.94;;;8.32;100.00
57990;BME280;58373;51.824;5.564;2023-04-01T18:24:42;100355.09;;;8.29;100.00
57990;BME280;58373;51.824;5.564;2023-04-01T18:29:55;100362.97;;;8.27;100.00
57990;BME280;58373;51.824;5.564;2023-04-01T18:32:29;100375.19;;;8.25;100.00
57990;BME280;58373;51.824;5.564;2023-04-01T18:37:27;100392.34;;;8.26;100.00
57990;BME280;58373;51.824;5.564;2023-04-01T18:39:58;100396.56;;;8.27;100.00
57990;BME280;58373;51.824;5.564;2023-04-01T18:42:36;100398.44;;;8.25;100.00
57990;BME280;58373;51.824;5.564;2023-04-01T18:52:41;100422.09;;;8.09;100.00
57990;BME280;58373;51.824;5.564;2023-04-01T19:00:08;100435.81;;;7.98;100.00
57990;BME280;58373;51.824;5.564;2023-04-01T19:02:43;100452.34;;;7.96;100.00
57990;BME280;58373;51.824;5.564;2023-04-01T19:05:31;100451.53;;;7.95;100.00
57990;BME280;58373;51.824;5.564;2023-04-01T19:08:32;100463.75;;;7.93;100.00
57990;BME280;58373;51.824;5.564;2023-04-01T19:21:02;100489.22;;;7.87;100.00
57990;BME280;58373;51.824;5.564;2023-04-01T19:26:00;100504.13;;;7.83;100.00
57990;BME280;58373;51.824;5.564;2023-04-01T19:36:13;100527.13;;;7.75;100.00
57990;BME280;58373;51.824;5.564;2023-04-01T19:43:55;100532.94;;;7.66;100.00
57990;BME280;58373;51.824;5.564;2023-04-01T20:07:08;100588.66;;;7.33;100.00
57990;BME280;58373;51.824;5.564;2023-04-01T20:09:41;100592.41;;;7.29;100.00
57990;BME280;58373;51.824;5.564;2023-04-01T20:12:16;100602.09;;;7.26;100.00
57990;BME280;58373;51.824;5.564;2023-04-01T20:15:07;100610.97;;;7.22;100.00
57990;BME280;58373;51.824;5.564;2023-04-01T20:20:31;100615.56;;;7.18;100.00
57990;BME280;58373;51.824;5.564;2023-04-01T20:23:16;100625.88;;;7.18;100.00
57990;BME280;58373;51.824;5.564;2023-04-01T20:25:46;100626.81;;;7.17;100.00
57990;BME280;58373;51.824;5.564;2023-04-01T20:28:25;100642.16;;;7.18;100.00
57990;BME280;58373;51.824;5.564;2023-04-01T20:31:04;100641.34;;;7.18;100.00
57990;BME280;58373;51.824;5.564;2023-04-01T20:33:56;100644.00;;;7.16;100.00
57990;BME280;58373;51.824;5.564;2023-04-01T20:49:30;100690.47;;;7.04;100.00
57990;BME280;58373;51.824;5.564;2023-04-01T21:07:19;100714.66;;;6.77;100.00
57990;BME280;58373;51.824;5.564;2023-04-01T21:20:16;100748.63;;;6.82;100.00
57990;BME280;58373;51.824;5.564;2023-04-01T21:23:01;100742.47;;;6.72;100.00
57990;BME280;58373;51.824;5.564;2023-04-01T21:25:50;100757.41;;;6.67;100.00
57990;BME280;58373;51.824;5.564;2023-04-01T21:30:58;100765.16;;;6.67;100.00
57990;BME280;58373;51.824;5.564;2023-04-01T21:49:21;100819.94;;;6.44;100.00
57990;BME280;58373;51.824;5.564;2023-04-01T21:57:04;100827.53;;;6.32;100.00
57990;BME280;58373;51.824;5.564;2023-04-01T22:02:27;100836.56;;;6.25;100.00
57990;BME280;58373;51.824;5.564;2023-04-01T22:05:11;100836.94;;;6.19;100.00
57990;BME280;58373;51.824;5.564;2023-04-01T22:10:28;100854.06;;;6.20;100.00
57990;BME280;58373;51.824;5.564;2023-04-01T22:12:59;100855.50;;;6.24;100.00
57990;BME280;58373;51.824;5.564;2023-04-01T22:20:44;100872.47;;;6.14;100.00
57990;BME280;58373;51.824;5.564;2023-04-01T22:23:19;100874.28;;;6.12;100.00
57990;BME280;58373;51.824;5.564;2023-04-01T22:31:00;100893.25;;;6.11;100.00
57990;BME280;58373;51.824;5.564;2023-04-01T22:36:16;100897.84;;;6.06;100.00
57990;BME280;58373;51.824;5.564;2023-04-01T22:38:50;100901.34;;;6.05;100.00
57990;BME280;58373;51.824;5.564;2023-04-01T22:41:40;100911.81;;;6.02;100.00
57990;BME280;58373;51.824;5.564;2023-04-01T22:44:13;100912.19;;;5.96;100.00
57990;BME280;58373;51.824;5.564;2023-04-01T22:47:44;100913.69;;;6.00;100.00
57990;BME280;58373;51.824;5.564;2023-04-01T22:49:41;100919.75;;;5.99;100.00
57990;BME280;58373;51.824;5.564;2023-04-01T22:54:48;100931.97;;;5.95;100.00
57990;BME280;58373;51.824;5.564;2023-04-01T22:57:28;100939.63;;;5.97;100.00
57990;BME280;58373;51.824;5.564;2023-04-01T22:59:58;100937.13;;;5.95;100.00
57990;BME280;58373;51.824;5.564;2023-04-01T23:02:27;100946.94;;;5.89;100.00
57990;BME280;58373;51.824;5.564;2023-04-01T23:04:54;100953.16;;;5.84;100.00
57990;BME280;58373;51.824;5.564;2023-04-01T23:09:56;100955.94;;;5.81;100.00
57990;BME280;58373;51.824;5.564;2023-04-01T23:12:23;100965.78;;;5.75;100.00
57990;BME280;58373;51.824;5.564;2023-04-01T23:14:50;100958.13;;;5.73;100.00
57990;BME280;58373;51.824;5.564;2023-04-01T23:17:33;100970.28;;;5.71;100.00
57990;BME280;58373;51.824;5.564;2023-04-01T23:27:31;100977.63;;;5.63;100.00
57990;BME280;58373;51.824;5.564;2023-04-01T23:30:01;100991.41;;;5.62;100.00
57990;BME280;58373;51.824;5.564;2023-04-01T23:32:28;100991.41;;;5.62;100.00
57990;BME280;58373;51.824;5.564;2023-04-01T23:34:57;101000.38;;;5.55;100.00
57990;BME280;58373;51.824;5.564;2023-04-01T23:37:23;101003.22;;;5.50;100.00
57990;BME280;58373;51.824;5.564;2023-04-01T23:39:49;101003.88;;;5.54;100.00
57990;BME280;58373;51.824;5.564;2023-04-01T23:42:18;101005.72;;;5.52;100.00